createdAt,value
2018-06-27T22:08:39.913Z,20.73
2018-06-27T22:09:01.734Z,20.83
2018-06-27T22:09:23.521Z,20.92
2018-06-27T22:09:45.302Z,20.95
2018-06-27T22:10:07.073Z,20.92
2018-06-27T22:10:28.864Z,20.91
2018-06-27T22:10:50.635Z,20.89
2018-06-27T22:11:12.439Z,20.84
2018-06-27T22:11:34.217Z,20.85
2018-06-27T22:11:55.988Z,20.83
2018-06-27T22:12:17.747Z,20.82
2018-06-27T22:12:39.519Z,20.80
2018-06-27T22:13:01.351Z,20.79
2018-06-27T22:13:23.109Z,20.79
2018-06-27T22:13:45.007Z,20.76
2018-06-27T22:14:06.786Z,20.74
2018-06-27T22:14:28.587Z,20.76
2018-06-27T22:14:50.344Z,20.76
2018-06-27T22:15:12.356Z,20.74
2018-06-27T22:15:34.159Z,20.75
2018-06-27T22:15:55.934Z,20.74
2018-06-27T22:16:17.751Z,20.75
2018-06-27T22:16:39.580Z,20.75
2018-06-27T22:17:01.352Z,20.78
2018-06-27T22:17:23.135Z,20.80
2018-06-27T22:17:44.924Z,20.81
2018-06-27T22:18:06.683Z,20.92
2018-06-27T22:18:28.485Z,21.11
2018-06-27T22:18:50.273Z,21.26
2018-06-27T22:19:12.059Z,21.38
2018-06-27T22:19:33.853Z,21.42
2018-06-27T22:19:55.633Z,21.31
2018-06-27T22:20:17.405Z,21.24
2018-06-27T22:20:39.187Z,21.13
2018-06-27T22:21:01.766Z,21.02
2018-06-27T22:21:23.571Z,20.95
2018-06-27T22:21:45.419Z,20.91
2018-06-27T22:22:07.149Z,20.86
2018-06-27T22:22:28.948Z,20.80
2018-06-27T22:22:50.780Z,20.71
2018-06-27T22:23:12.672Z,20.70
2018-06-27T22:23:34.472Z,20.67
2018-06-27T22:23:56.237Z,20.64
2018-06-27T22:24:18.012Z,20.62
2018-06-27T22:24:39.816Z,20.61
2018-06-27T22:25:02.308Z,20.56
2018-06-27T22:25:24.079Z,20.54
2018-06-27T22:25:45.893Z,20.53
2018-06-27T22:26:07.665Z,20.50
2018-06-27T22:26:29.480Z,20.48
2018-06-27T22:26:51.281Z,20.43
2018-06-27T22:27:13.044Z,20.43
2018-06-27T22:27:34.805Z,20.43
2018-06-27T22:27:56.623Z,20.43
2018-06-27T22:28:18.408Z,20.42
2018-06-27T22:28:40.236Z,20.41
2018-06-27T22:29:02.025Z,20.41
2018-06-27T22:29:23.901Z,20.40
2018-06-27T22:29:45.704Z,20.39
2018-06-27T22:30:07.467Z,20.35
2018-06-27T22:30:29.264Z,20.35
2018-06-27T22:30:51.034Z,20.35
2018-06-27T22:31:12.828Z,20.36
2018-06-27T22:31:34.628Z,20.34
2018-06-27T22:31:56.413Z,20.33
2018-06-27T22:32:18.196Z,20.31
2018-06-27T22:32:40.036Z,20.30
2018-06-27T22:33:01.951Z,20.41
2018-06-27T22:33:23.729Z,20.49
2018-06-27T22:33:45.496Z,20.58
2018-06-27T22:34:07.281Z,20.64
2018-06-27T22:34:29.056Z,20.72
2018-06-27T22:34:50.853Z,20.78
2018-06-27T22:35:12.637Z,20.82
2018-06-27T22:35:35.041Z,20.83
2018-06-27T22:35:56.896Z,20.86
2018-06-27T22:36:18.702Z,20.88
2018-06-27T22:36:40.840Z,20.89
2018-06-27T22:37:02.636Z,20.93
2018-06-27T22:37:24.440Z,20.93
2018-06-27T22:37:46.233Z,20.94
2018-06-27T22:38:08.026Z,20.91
2018-06-27T22:38:29.821Z,20.93
2018-06-27T22:38:51.740Z,20.93
2018-06-27T22:39:13.625Z,20.93
2018-06-27T22:39:35.433Z,20.93
2018-06-27T22:39:57.224Z,20.93
2018-06-27T22:40:19.014Z,20.93
2018-06-27T22:40:41.243Z,20.91
2018-06-27T22:41:03.013Z,20.92
2018-06-27T22:41:24.820Z,20.91
2018-06-27T22:41:46.629Z,20.89
2018-06-27T22:42:08.420Z,20.91
2018-06-27T22:42:30.211Z,20.89
2018-06-27T22:42:51.998Z,20.92
2018-06-27T22:43:13.776Z,20.92
2018-06-27T22:43:35.554Z,20.92
2018-06-27T22:43:57.332Z,20.89
2018-06-27T22:44:19.091Z,20.91
2018-06-27T22:44:40.873Z,20.90
2018-06-27T22:45:02.643Z,20.89
2018-06-27T22:45:24.433Z,20.88
2018-06-27T22:45:46.184Z,20.88
2018-06-27T22:46:08.011Z,20.86
2018-06-27T22:47:02.487Z,20.84
2018-06-27T22:47:24.257Z,20.85
2018-06-27T22:47:46.023Z,20.85
2018-06-27T22:48:07.820Z,20.85
2018-06-27T22:48:29.596Z,20.84
2018-06-27T22:48:51.349Z,20.84
2018-06-27T22:49:13.118Z,20.83
2018-06-27T22:49:34.887Z,20.82
2018-06-27T22:49:56.650Z,20.81
2018-06-27T22:50:18.495Z,20.82
2018-06-27T22:50:40.269Z,20.82
2018-06-27T22:51:02.041Z,20.82
2018-06-27T22:51:23.818Z,20.83
2018-06-27T22:51:45.587Z,20.81
2018-06-27T22:52:07.351Z,20.81
2018-06-27T22:52:29.118Z,20.81
2018-06-27T22:52:50.909Z,20.80
2018-06-27T22:53:12.664Z,20.78
2018-06-27T22:53:34.484Z,20.77
2018-06-27T22:53:56.264Z,20.77
2018-06-27T22:54:18.066Z,20.77
2018-06-27T22:54:40.007Z,20.75
2018-06-27T22:55:01.776Z,20.75
2018-06-27T22:55:23.574Z,20.74
2018-06-27T22:55:45.339Z,20.73
2018-06-27T22:56:07.106Z,20.73
2018-06-27T22:56:28.880Z,20.69
2018-06-27T22:56:50.672Z,20.70
2018-06-27T22:57:12.810Z,20.70
2018-06-27T22:57:34.940Z,20.70
2018-06-27T22:57:57.076Z,20.71
2018-06-27T22:58:19.197Z,20.71
2018-06-27T22:58:41.083Z,20.69
2018-06-27T22:59:02.894Z,20.68
2018-06-27T22:59:24.717Z,20.70
2018-06-27T22:59:46.571Z,20.70
2018-06-27T23:00:08.441Z,20.67
2018-06-27T23:00:30.274Z,20.69
2018-06-27T23:00:52.129Z,20.70
2018-06-27T23:01:13.989Z,20.70
2018-06-27T23:01:35.799Z,20.70
2018-06-27T23:01:57.625Z,20.66
2018-06-27T23:02:19.483Z,20.68
2018-06-27T23:02:41.321Z,20.69
2018-06-27T23:03:03.130Z,20.67
2018-06-27T23:03:24.935Z,20.66
2018-06-27T23:03:46.800Z,20.63
2018-06-27T23:04:08.637Z,20.63
2018-06-27T23:04:30.531Z,20.63
2018-06-27T23:04:52.339Z,20.64
2018-06-27T23:05:14.120Z,20.63
2018-06-27T23:05:35.875Z,20.64
2018-06-27T23:05:57.619Z,20.63
2018-06-27T23:06:19.382Z,20.64
2018-06-27T23:06:41.142Z,20.63
2018-06-27T23:07:02.924Z,20.63
2018-06-27T23:07:24.722Z,20.64
2018-06-27T23:07:46.508Z,20.62
2018-06-27T23:08:08.288Z,20.61
2018-06-27T23:08:30.104Z,20.62
2018-06-27T23:08:51.875Z,20.62
2018-06-27T23:09:13.700Z,20.62
2018-06-27T23:09:35.511Z,20.63
2018-06-27T23:09:57.320Z,20.63
2018-06-27T23:10:19.124Z,20.62
2018-06-27T23:10:40.882Z,20.63
2018-06-27T23:11:02.684Z,20.61
2018-06-27T23:11:24.847Z,20.59
2018-06-27T23:11:46.619Z,20.60
2018-06-27T23:12:08.382Z,20.60
2018-06-27T23:12:30.177Z,20.60
2018-06-27T23:12:51.957Z,20.60
2018-06-27T23:13:13.732Z,20.60
2018-06-27T23:13:35.492Z,20.61
2018-06-27T23:13:57.270Z,20.61
2018-06-27T23:14:19.015Z,20.60
2018-06-27T23:14:40.805Z,20.57
2018-06-27T23:15:02.556Z,20.57
2018-06-27T23:15:24.344Z,20.57
2018-06-27T23:15:46.135Z,20.56
2018-06-27T23:16:07.923Z,20.59
2018-06-27T23:16:29.725Z,20.59
2018-06-27T23:16:51.505Z,20.60
2018-06-27T23:17:13.273Z,20.59
2018-06-27T23:17:35.074Z,20.57
2018-06-27T23:17:56.851Z,20.54
2018-06-27T23:18:18.632Z,20.54
2018-06-27T23:18:40.417Z,20.54
2018-06-27T23:19:02.224Z,20.55
2018-06-27T23:19:24.147Z,20.53
2018-06-27T23:19:45.863Z,20.54
2018-06-27T23:20:07.632Z,20.55
2018-06-27T23:20:29.397Z,20.56
2018-06-27T23:20:51.189Z,20.53
2018-06-27T23:21:12.953Z,20.51
2018-06-27T23:21:34.730Z,20.52
2018-06-27T23:21:56.514Z,20.51
2018-06-27T23:22:18.272Z,20.52
2018-06-27T23:22:40.251Z,20.53
2018-06-27T23:23:02.015Z,20.51
2018-06-27T23:23:23.785Z,20.53
2018-06-27T23:23:45.557Z,20.51
2018-06-27T23:24:07.341Z,20.52
2018-06-27T23:24:29.135Z,20.48
2018-06-27T23:24:50.879Z,20.48
2018-06-27T23:25:13.015Z,20.46
2018-06-27T23:25:34.785Z,20.48
2018-06-27T23:25:56.550Z,20.46
2018-06-27T23:26:18.311Z,20.46
2018-06-27T23:26:40.087Z,20.48
2018-06-27T23:27:01.874Z,20.46
2018-06-27T23:27:23.788Z,20.48
2018-06-27T23:27:46.026Z,20.47
2018-06-27T23:28:07.808Z,20.47
2018-06-27T23:28:29.573Z,20.46
2018-06-27T23:28:51.357Z,20.46
2018-06-27T23:29:13.121Z,20.49
2018-06-27T23:29:34.946Z,20.49
2018-06-27T23:29:56.788Z,20.47
2018-06-27T23:30:18.566Z,20.47
2018-06-27T23:30:40.340Z,20.46
2018-06-27T23:31:02.141Z,20.46
2018-06-27T23:31:23.899Z,20.47
2018-06-27T23:31:45.712Z,20.47
2018-06-27T23:32:07.476Z,20.48
2018-06-27T23:32:29.237Z,20.48
2018-06-27T23:32:51.029Z,20.46
2018-06-27T23:33:12.828Z,20.47
2018-06-27T23:33:34.616Z,20.47
2018-06-27T23:33:56.401Z,20.46
2018-06-27T23:34:18.158Z,20.44
2018-06-27T23:34:39.932Z,20.43
2018-06-27T23:35:01.952Z,20.43
2018-06-27T23:35:23.716Z,20.41
2018-06-27T23:35:45.493Z,20.41
2018-06-27T23:36:07.360Z,20.40
2018-06-27T23:36:29.116Z,20.41
2018-06-27T23:36:50.870Z,20.41
2018-06-27T23:37:12.630Z,20.42
2018-06-27T23:37:34.592Z,20.42
2018-06-27T23:37:56.396Z,20.43
2018-06-27T23:38:18.162Z,20.42
2018-06-27T23:38:39.934Z,20.41
2018-06-27T23:39:01.700Z,20.40
2018-06-27T23:39:23.525Z,20.40
2018-06-27T23:39:45.292Z,20.38
2018-06-27T23:40:07.358Z,20.40
2018-06-27T23:40:29.107Z,20.40
2018-06-27T23:40:50.966Z,20.40
2018-06-27T23:41:12.740Z,20.39
2018-06-27T23:41:34.491Z,20.39
2018-06-27T23:41:56.243Z,20.37
2018-06-27T23:42:18.007Z,20.39
2018-06-27T23:42:39.780Z,20.37
2018-06-27T23:43:01.567Z,20.37
2018-06-27T23:43:23.336Z,20.36
2018-06-27T23:43:45.108Z,20.35
2018-06-27T23:44:06.924Z,20.36
2018-06-27T23:44:28.692Z,20.35
2018-06-27T23:44:50.473Z,20.35
2018-06-27T23:45:12.252Z,20.32
2018-06-27T23:45:34.055Z,20.32
2018-06-27T23:45:55.820Z,20.33
2018-06-27T23:46:17.590Z,20.35
2018-06-27T23:46:39.387Z,20.35
2018-06-27T23:47:01.164Z,20.34
2018-06-27T23:47:22.975Z,20.34
2018-06-27T23:47:44.729Z,20.35
2018-06-27T23:48:06.555Z,20.35
2018-06-27T23:48:28.328Z,20.34
2018-06-27T23:48:50.119Z,20.34
2018-06-27T23:49:11.883Z,20.34
2018-06-27T23:49:33.717Z,20.33
2018-06-27T23:49:55.481Z,20.32
2018-06-27T23:50:17.256Z,20.31
2018-06-27T23:50:39.034Z,20.32
2018-06-27T23:51:00.796Z,20.32
2018-06-27T23:51:22.567Z,20.31
2018-06-27T23:51:44.323Z,20.31
2018-06-27T23:52:06.089Z,20.30
2018-06-27T23:52:28.130Z,20.30
2018-06-27T23:52:49.890Z,20.32
2018-06-27T23:53:11.689Z,20.31
2018-06-27T23:53:33.473Z,20.32
2018-06-27T23:53:55.241Z,20.30
2018-06-27T23:54:17.017Z,20.33
2018-06-27T23:54:38.782Z,20.33
2018-06-27T23:55:00.531Z,20.35
2018-06-27T23:55:22.278Z,20.36
2018-06-27T23:55:44.045Z,20.33
2018-06-27T23:56:05.794Z,20.34
2018-06-27T23:56:27.551Z,20.32
2018-06-27T23:56:49.313Z,20.29
2018-06-27T23:57:11.180Z,20.29
2018-06-27T23:57:32.965Z,20.29
2018-06-27T23:57:54.713Z,20.27
2018-06-27T23:58:16.564Z,20.29
2018-06-27T23:58:38.337Z,20.29
2018-06-27T23:59:00.127Z,20.27
2018-06-27T23:59:21.917Z,20.26
2018-06-27T23:59:43.736Z,20.25
